Aeroporto :
LOGIN :

Iscrizione | Disclaimer

   EN    FR    IT 

 










Sommario :    VFR   VFR Marginale   IFR   IFR Intensivo   IFR Molto Intensivo
Visibilità : 
Base nubi : 
>= 8 km
>= 3000ft
5 / 8 km
1000 / 3000 ft
1500m / 5 km
500 / 1000 ft
800 / 1500m
200 / 500 ft
< 800m
< 200 ft
Simboli :   Temporali  Nebbia  Neve Forte  Precipitazioni Forti  Vento > 20 kt
SIGMETs :   Varie  Temporali  Ghiacco  Turbolenza  Onda orograficha  Ceneri Vulcaniche






- Altitudine del aeroporto : 27 ft
- Codice IATA : PMI


LEPA - Palma de Mallorca

ULTIMO METAR :
  • 070800Z 31009KT 270V350 9999 FEW018 FEW045CB 23/18 Q1006 TEMPO TSRA

METARs OBSOLETI :
  • 070730Z 09007KT 060V120 9999 FEW018 FEW045CB 23/19 Q1005 TEMPO TSRA
  • 070700Z 09003KT 9999 VCTS FEW018 FEW045CB 22/18 Q1005 TEMPO TSRA
  • 070630Z 07004KT 030V110 9999 FEW018 SCT045 22/17 Q1005 NOSIG
  • 070600Z 36006KT 340V040 9999 FEW018 SCT045 21/18 Q1004 NOSIG
  • 070530Z 03005KT 350V070 9999 FEW018CB SCT045 19/18 Q1005 NOSIG
  • 070500Z 12003KT 080V150 9999 VCTS FEW018CB SCT045 18/17 Q1004 NOSIG

TAF TAF LEPA
Valido dal 07 a 06 ore il 08 a 06 ore UTC


070500Z 0706/0806 VRB04KT 9999 FEW014 TX28/0712Z TN16/0706Z
TEMPO 0709/0713 22008KT
TEMPO 0711/0715 33012KT
PROB40
TEMPO 0706/0718 4000 TSRA FEW030CB
BECMG 0713/0715 06013KT
PROB30
TEMPO 0721/0801 2000 +SHRA TS SCT020CB



MetMap, La meteo Aeronautica in un colpo d'occhio ! - Copyright ORBIFLY Dicembre 2007 - Disclaimer

ORBIFLY MET'MAP TEAM :

Programmazione e sviluppo : Alexandra Zaïnal
Concezione : Baudouin d'Aumeries
Aiuto per la programmazione : Marc-Olivier Méhu
Supporto tecnico e logistico : Manuel Goepfert
Aiuto per la traduzione : Arnaldo La Scala

Contatto : metmap@orbifly.com




FONTI E CREDITI :

   NOAA